createdAt,value
2019-05-28T00:00:21.184Z,2.10
2019-05-28T00:02:48.698Z,2.17
2019-05-28T00:05:16.221Z,2.13
2019-05-28T00:07:43.838Z,1.90
2019-05-28T00:10:11.422Z,2.23
2019-05-28T00:12:38.892Z,2.50
2019-05-28T00:15:07.283Z,3.00
2019-05-28T00:17:35.634Z,2.53
2019-05-28T00:20:07.433Z,2.80
2019-05-28T00:22:34.941Z,2.73
2019-05-28T00:25:02.527Z,2.20
2019-05-28T00:27:30.904Z,3.13
2019-05-28T00:29:59.154Z,3.30
2019-05-28T00:32:26.868Z,2.80
2019-05-28T00:34:55.161Z,2.90
2019-05-28T00:37:22.802Z,3.27
2019-05-28T00:39:50.297Z,2.37
2019-05-28T00:42:17.790Z,2.90
2019-05-28T00:44:48.030Z,2.20
2019-05-28T00:47:16.652Z,2.57
2019-05-28T00:49:45.116Z,2.50
2019-05-28T00:52:12.598Z,2.90
2019-05-28T00:54:40.957Z,2.53
2019-05-28T00:57:08.635Z,3.10
2019-05-28T00:59:36.124Z,3.30
2019-05-28T01:02:04.695Z,2.87
2019-05-28T01:04:32.996Z,3.20
2019-05-28T01:07:00.750Z,2.97
2019-05-28T01:09:28.497Z,3.00
2019-05-28T01:11:56.166Z,3.00
2019-05-28T01:14:24.435Z,3.33
2019-05-28T01:16:52.098Z,2.87
2019-05-28T01:19:19.677Z,3.30
2019-05-28T01:21:47.201Z,3.13
2019-05-28T01:24:15.010Z,2.63
2019-05-28T01:26:43.386Z,2.97
2019-05-28T01:29:10.963Z,2.85
2019-05-28T01:31:38.622Z,2.60
2019-05-28T01:34:06.129Z,2.40
2019-05-28T01:36:33.688Z,2.80
2019-05-28T01:39:01.233Z,2.50
2019-05-28T01:41:29.719Z,3.10
2019-05-28T01:43:57.986Z,2.97
2019-05-28T01:46:25.545Z,2.70
2019-05-28T01:48:53.058Z,2.70
2019-05-28T01:51:20.594Z,2.70
2019-05-28T01:53:48.853Z,2.63
2019-05-28T01:56:16.357Z,2.10
2019-05-28T01:58:44.094Z,2.40
2019-05-28T02:01:13.418Z,2.33
2019-05-28T02:03:40.804Z,2.60
2019-05-28T02:06:08.409Z,2.83
2019-05-28T02:08:36.114Z,3.00
2019-05-28T02:11:04.515Z,2.00
2019-05-28T02:13:31.991Z,2.67
2019-05-28T02:15:59.593Z,2.60
2019-05-28T02:18:27.252Z,2.70
2019-05-28T02:20:54.828Z,2.70
2019-05-28T02:23:22.334Z,2.50
2019-05-28T02:25:49.954Z,2.77
2019-05-28T02:28:17.622Z,2.07
2019-05-28T02:30:45.115Z,2.50
2019-05-28T02:33:12.605Z,2.37
2019-05-28T02:35:40.217Z,2.60
2019-05-28T02:38:08.582Z,2.50
2019-05-28T02:40:36.255Z,2.20
2019-05-28T02:43:03.748Z,3.10
2019-05-28T02:45:32.035Z,1.90
2019-05-28T02:47:59.869Z,2.20
2019-05-28T02:50:53.345Z,2.50
2019-05-28T02:53:21.594Z,2.05
2019-05-28T02:55:49.093Z,3.00
2019-05-28T02:58:17.458Z,2.70
2019-05-28T03:00:45.078Z,2.47
2019-05-28T03:03:12.631Z,2.53
2019-05-28T03:05:40.336Z,2.50
2019-05-28T03:08:07.831Z,2.20
2019-05-28T03:10:59.619Z,2.10
2019-05-28T03:13:04.700Z,2.53
2019-05-28T03:15:34.814Z,2.50
2019-05-28T03:18:02.298Z,2.37
2019-05-28T03:20:30.042Z,2.40
2019-05-28T03:22:57.607Z,2.70
2019-05-28T03:25:25.180Z,2.40
2019-05-28T03:27:52.640Z,2.80
2019-05-28T03:30:22.044Z,2.20
2019-05-28T03:32:50.416Z,2.70
2019-05-28T03:35:18.669Z,3.07
2019-05-28T03:37:46.259Z,3.97
2019-05-28T03:40:13.945Z,2.70
2019-05-28T03:42:42.194Z,2.83
2019-05-28T03:45:09.703Z,2.60
2019-05-28T03:47:37.220Z,2.40
2019-05-28T03:50:05.779Z,2.80
2019-05-28T03:52:33.383Z,2.27
2019-05-28T03:55:00.882Z,2.93
2019-05-28T03:57:28.619Z,2.33
2019-05-28T03:59:57.982Z,2.17
2019-05-28T04:02:24.261Z,2.87
2019-05-28T04:04:52.325Z,1.97
2019-05-28T04:07:20.036Z,2.10
2019-05-28T04:09:47.527Z,2.20
2019-05-28T04:12:15.744Z,1.90
2019-05-28T04:14:43.452Z,1.90
2019-05-28T04:17:11.242Z,2.27
2019-05-28T04:19:38.864Z,1.90
2019-05-28T04:22:07.117Z,1.60
2019-05-28T04:24:34.807Z,1.90
2019-05-28T04:27:04.294Z,1.70
2019-05-28T04:29:31.867Z,1.70
2019-05-28T04:31:59.462Z,1.60
2019-05-28T04:34:26.954Z,1.43
2019-05-28T04:36:54.579Z,1.60
2019-05-28T04:39:23.151Z,1.50
2019-05-28T04:41:50.635Z,1.67
2019-05-28T04:44:18.200Z,1.50
2019-05-28T04:46:45.770Z,1.60
2019-05-28T04:49:13.312Z,1.60
2019-05-28T04:51:41.605Z,1.60
2019-05-28T04:54:09.849Z,1.60
2019-05-28T04:56:37.345Z,1.60
2019-05-28T04:59:05.807Z,1.93
2019-05-28T05:01:34.194Z,1.80
2019-05-28T05:04:02.461Z,1.70
2019-05-28T05:06:29.982Z,1.77
2019-05-28T05:08:57.685Z,1.40
2019-05-28T05:11:25.185Z,1.80
2019-05-28T05:13:53.448Z,1.53
2019-05-28T05:16:21.117Z,1.80
2019-05-28T05:18:48.685Z,1.40
2019-05-28T05:21:16.339Z,1.60
2019-05-28T05:23:44.976Z,1.13
2019-05-28T05:26:12.507Z,1.20
2019-05-28T05:28:40.777Z,1.40
2019-05-28T05:31:08.343Z,1.60
2019-05-28T05:33:36.003Z,1.40
2019-05-28T05:36:03.766Z,1.40
2019-05-28T05:38:32.756Z,1.50
2019-05-28T05:41:00.324Z,1.30
2019-05-28T05:43:27.995Z,1.30
2019-05-28T05:45:55.531Z,1.17
2019-05-28T05:48:23.033Z,1.33
2019-05-28T05:50:50.656Z,1.40
2019-05-28T05:53:18.237Z,1.13
2019-05-28T05:55:45.920Z,1.40
2019-05-28T05:58:14.304Z,1.70
2019-05-28T06:00:41.805Z,1.73
2019-05-28T06:03:09.294Z,1.27
2019-05-28T06:05:36.791Z,1.17
2019-05-28T06:08:04.327Z,1.27
2019-05-28T06:10:31.921Z,1.10
2019-05-28T06:12:59.905Z,1.00
2019-05-28T06:15:28.258Z,1.37
2019-05-28T06:17:56.561Z,1.20
2019-05-28T06:20:24.460Z,1.30
2019-05-28T06:22:51.954Z,1.30
2019-05-28T06:25:21.058Z,1.20
2019-05-28T06:27:49.504Z,1.37
2019-05-28T06:30:17.901Z,1.43
2019-05-28T06:32:45.420Z,1.03
2019-05-28T06:35:13.945Z,1.20
2019-05-28T06:37:41.439Z,1.23
2019-05-28T06:40:08.939Z,1.30
2019-05-28T06:42:39.992Z,1.03
2019-05-28T06:45:06.246Z,1.23
2019-05-28T06:47:35.118Z,1.37
2019-05-28T06:50:03.800Z,1.03
2019-05-28T06:52:31.354Z,1.00
2019-05-28T06:54:58.851Z,1.10
2019-05-28T06:57:27.221Z,1.17
2019-05-28T06:59:55.967Z,1.40
2019-05-28T07:02:23.552Z,1.03
2019-05-28T07:04:51.051Z,1.00
2019-05-28T07:07:20.201Z,1.00
2019-05-28T07:09:47.827Z,0.93
2019-05-28T07:12:17.966Z,1.63
2019-05-28T07:14:42.943Z,0.90
2019-05-28T07:17:11.208Z,1.20
2019-05-28T07:19:38.786Z,0.90
2019-05-28T07:22:07.039Z,1.07
2019-05-28T07:24:34.749Z,1.20
2019-05-28T07:27:02.455Z,1.30
2019-05-28T07:29:30.059Z,1.30
2019-05-28T07:31:57.812Z,1.40
2019-05-28T07:34:30.658Z,1.30
2019-05-28T07:36:53.055Z,1.57
2019-05-28T07:39:21.479Z,1.50
2019-05-28T07:41:48.980Z,1.13
2019-05-28T07:44:16.675Z,1.30
2019-05-28T07:46:44.956Z,1.43
2019-05-28T07:49:12.609Z,1.10
2019-05-28T07:51:40.173Z,1.20
2019-05-28T07:54:08.864Z,1.10
2019-05-28T07:56:36.527Z,1.27
2019-05-28T07:59:04.008Z,1.00
2019-05-28T08:01:32.332Z,1.07
2019-05-28T08:03:59.931Z,1.10
2019-05-28T08:06:28.197Z,1.10
2019-05-28T08:08:55.854Z,1.10
2019-05-28T08:11:23.278Z,1.10
2019-05-28T08:13:52.602Z,0.97
2019-05-28T08:16:19.447Z,1.13
2019-05-28T08:18:47.775Z,1.00
2019-05-28T08:21:15.358Z,1.00
2019-05-28T08:23:43.716Z,1.27
2019-05-28T08:26:11.295Z,1.27
2019-05-28T08:28:38.809Z,1.00
2019-05-28T08:31:15.281Z,1.20
2019-05-28T08:33:34.892Z,1.10
2019-05-28T08:36:02.471Z,1.87
2019-05-28T08:38:30.034Z,1.20
2019-05-28T08:40:57.625Z,1.30
2019-05-28T08:43:25.972Z,1.10
2019-05-28T08:45:53.545Z,1.30
2019-05-28T08:48:21.210Z,1.00
2019-05-28T08:50:48.723Z,1.10
2019-05-28T08:53:16.325Z,0.97
2019-05-28T08:55:46.754Z,0.80
2019-05-28T08:58:14.230Z,1.00
2019-05-28T09:00:41.765Z,1.20
2019-05-28T09:03:09.541Z,1.10
2019-05-28T09:05:37.088Z,1.00
2019-05-28T09:08:04.675Z,1.30
2019-05-28T09:10:32.243Z,1.07
2019-05-28T09:13:00.349Z,0.90
2019-05-28T09:15:29.023Z,1.20
2019-05-28T09:17:56.519Z,1.20
2019-05-28T09:20:24.043Z,0.80
2019-05-28T09:22:51.893Z,1.00
2019-05-28T09:25:19.151Z,1.10
2019-05-28T09:27:46.750Z,0.90
2019-05-28T09:30:15.261Z,1.03
2019-05-28T09:32:42.787Z,1.07
2019-05-28T09:35:11.904Z,1.10
2019-05-28T09:37:43.252Z,0.87
2019-05-28T09:40:11.608Z,0.90
2019-05-28T09:42:39.141Z,0.80
2019-05-28T09:45:21.343Z,0.80
2019-05-28T09:47:34.215Z,1.10
2019-05-28T09:50:01.794Z,0.97
2019-05-28T09:52:30.046Z,1.07
2019-05-28T09:54:57.923Z,1.13
2019-05-28T09:57:25.489Z,1.10
2019-05-28T09:59:53.760Z,1.17
2019-05-28T10:02:21.372Z,1.03
2019-05-28T10:04:50.108Z,1.07
2019-05-28T10:07:16.833Z,1.30
2019-05-28T10:09:45.045Z,1.00
2019-05-28T10:12:12.539Z,1.10
2019-05-28T10:14:44.156Z,1.00
2019-05-28T10:17:09.040Z,1.20
2019-05-28T10:19:36.543Z,1.17
2019-05-28T10:22:04.034Z,1.00
2019-05-28T10:24:31.567Z,1.13
2019-05-28T10:26:59.142Z,1.17
2019-05-28T10:29:28.456Z,0.93
2019-05-28T10:31:57.014Z,1.17
2019-05-28T10:34:24.595Z,1.23
2019-05-28T10:36:52.547Z,0.93
2019-05-28T10:39:20.163Z,1.00
2019-05-28T10:41:47.886Z,1.77
2019-05-28T10:44:15.455Z,1.10
2019-05-28T10:46:43.115Z,1.03
2019-05-28T10:49:10.650Z,1.00
2019-05-28T10:51:38.194Z,1.10
2019-05-28T10:54:05.707Z,1.40
2019-05-28T10:56:34.088Z,1.20
2019-05-28T10:59:01.671Z,1.10
2019-05-28T11:01:29.152Z,1.20
2019-05-28T11:03:57.392Z,1.20
2019-05-28T11:06:25.169Z,1.20
2019-05-28T11:08:52.733Z,1.20
2019-05-28T11:11:20.399Z,1.37
2019-05-28T11:13:53.020Z,1.30
2019-05-28T11:16:16.453Z,1.30
2019-05-28T11:18:44.518Z,1.53
2019-05-28T11:21:12.013Z,1.33
2019-05-28T11:23:40.374Z,1.57
2019-05-28T11:26:07.934Z,1.40
2019-05-28T11:28:35.663Z,1.40
2019-05-28T11:31:04.598Z,1.50
2019-05-28T11:33:32.078Z,1.40
2019-05-28T11:36:00.450Z,1.60
2019-05-28T11:38:28.016Z,1.20
2019-05-28T11:40:56.507Z,1.40
2019-05-28T11:43:24.093Z,1.33
2019-05-28T11:45:51.581Z,1.17
2019-05-28T11:48:19.199Z,1.60
2019-05-28T11:50:47.598Z,1.77
2019-05-28T11:53:15.997Z,1.30
2019-05-28T11:55:43.536Z,1.40
2019-05-28T11:58:11.775Z,1.50
2019-05-28T12:00:39.250Z,1.30
2019-05-28T12:03:06.917Z,1.43
2019-05-28T12:05:34.745Z,1.40
2019-05-28T12:08:02.405Z,1.30
2019-05-28T12:10:30.854Z,1.27
2019-05-28T12:12:58.382Z,1.40
2019-05-28T12:15:25.982Z,1.17
2019-05-28T12:17:53.575Z,1.37
2019-05-28T12:20:21.093Z,1.30
2019-05-28T12:22:48.629Z,1.17
2019-05-28T12:25:16.113Z,1.70
2019-05-28T12:27:43.699Z,1.40
2019-05-28T12:30:11.982Z,1.40
2019-05-28T12:32:40.238Z,1.70
2019-05-28T12:35:25.805Z,1.80
2019-05-28T12:37:47.202Z,1.40
2019-05-28T12:40:05.312Z,1.43
2019-05-28T12:42:33.554Z,1.33
2019-05-28T12:45:09.556Z,1.70
2019-05-28T12:47:30.390Z,2.03
2019-05-28T12:50:17.299Z,1.60
2019-05-28T12:52:26.495Z,1.63
2019-05-28T12:54:54.060Z,1.77
2019-05-28T12:57:21.831Z,1.30
2019-05-28T12:59:49.398Z,1.70
2019-05-28T13:02:17.697Z,1.40
2019-05-28T13:04:45.962Z,1.87
2019-05-28T13:07:13.630Z,1.47
2019-05-28T13:09:41.109Z,1.57
2019-05-28T13:12:09.506Z,1.77
2019-05-28T13:14:38.239Z,1.60
2019-05-28T13:17:06.085Z,1.70
2019-05-28T13:19:34.213Z,1.80
2019-05-28T13:22:01.778Z,1.60
2019-05-28T13:24:30.060Z,1.90
2019-05-28T13:26:57.535Z,1.60
2019-05-28T13:29:25.908Z,1.83
2019-05-28T13:31:54.929Z,1.90
2019-05-28T13:34:23.197Z,1.50
2019-05-28T13:36:51.432Z,1.73
2019-05-28T13:39:19.072Z,1.70
2019-05-28T13:41:46.710Z,1.80
2019-05-28T13:44:15.059Z,1.67
2019-05-28T13:46:42.668Z,1.70
2019-05-28T13:49:11.467Z,1.93
2019-05-28T13:51:39.088Z,1.60
2019-05-28T13:54:07.491Z,1.53
2019-05-28T13:56:35.844Z,1.60
2019-05-28T13:59:04.751Z,1.70
2019-05-28T14:01:32.227Z,1.70
2019-05-28T14:03:59.796Z,1.90
2019-05-28T14:06:28.333Z,1.57
2019-05-28T14:08:55.826Z,1.90
2019-05-28T14:11:23.407Z,1.80
2019-05-28T14:13:51.081Z,1.70
2019-05-28T14:16:19.383Z,1.70
2019-05-28T14:18:47.831Z,1.63
2019-05-28T14:21:15.327Z,1.67
2019-05-28T14:23:42.856Z,1.73
2019-05-28T14:26:10.556Z,1.73
2019-05-28T14:28:39.114Z,1.60
2019-05-28T14:31:08.411Z,1.33
2019-05-28T14:33:37.522Z,1.73
2019-05-28T14:36:05.782Z,1.43
2019-05-28T14:38:33.282Z,1.33
2019-05-28T14:41:02.032Z,1.50
2019-05-28T14:43:29.229Z,2.30
2019-05-28T14:45:57.497Z,1.70
2019-05-28T14:48:24.981Z,1.60
2019-05-28T14:50:53.320Z,1.70
2019-05-28T14:53:20.792Z,1.70
2019-05-28T14:55:48.361Z,1.40
2019-05-28T14:58:17.372Z,1.13
2019-05-28T15:00:45.016Z,2.00
2019-05-28T15:03:12.524Z,1.53
2019-05-28T15:05:40.140Z,1.50
2019-05-28T15:08:07.638Z,1.60
2019-05-28T15:10:36.011Z,1.70
2019-05-28T15:13:04.580Z,1.80
2019-05-28T15:15:36.356Z,1.47
2019-05-28T15:18:00.521Z,1.87
2019-05-28T15:20:28.087Z,1.77
2019-05-28T15:22:55.864Z,1.47
2019-05-28T15:25:23.511Z,1.57
2019-05-28T15:27:51.040Z,1.30
2019-05-28T15:30:18.528Z,1.50
2019-05-28T15:32:46.134Z,1.10
2019-05-28T15:35:14.483Z,1.23
2019-05-28T15:37:42.015Z,1.20
2019-05-28T15:40:09.833Z,1.30
2019-05-28T15:42:37.706Z,1.30
2019-05-28T15:45:07.073Z,1.13
2019-05-28T15:47:34.775Z,1.13
2019-05-28T15:50:02.369Z,1.40
2019-05-28T15:52:31.564Z,1.40
2019-05-28T15:54:59.427Z,1.37
2019-05-28T15:57:27.298Z,1.40
2019-05-28T15:59:54.785Z,1.50
2019-05-28T16:02:23.021Z,1.00
2019-05-28T16:04:50.589Z,1.40
2019-05-28T16:07:18.611Z,1.23
2019-05-28T16:09:55.731Z,1.00
2019-05-28T16:12:13.647Z,1.13
2019-05-28T16:14:41.127Z,0.90
2019-05-28T16:17:08.655Z,1.20
2019-05-28T16:19:36.292Z,1.10
2019-05-28T16:22:04.215Z,0.80
2019-05-28T16:24:31.743Z,1.27
2019-05-28T16:27:00.101Z,1.00
2019-05-28T16:29:28.380Z,1.53
2019-05-28T16:31:55.930Z,0.90
2019-05-28T16:34:23.458Z,1.10
2019-05-28T16:36:51.081Z,1.27
2019-05-28T16:39:19.416Z,1.30
2019-05-28T16:41:47.030Z,1.10
2019-05-28T16:44:14.642Z,1.00
2019-05-28T16:46:42.315Z,1.20
2019-05-28T16:49:10.531Z,1.10
2019-05-28T16:51:38.036Z,1.10
2019-05-28T16:54:18.840Z,0.93
2019-05-28T16:56:34.463Z,1.30
2019-05-28T16:59:01.981Z,1.00
2019-05-28T17:01:29.645Z,1.00
2019-05-28T17:03:57.368Z,1.00
2019-05-28T17:06:24.944Z,1.00
2019-05-28T17:08:53.352Z,1.20
2019-05-28T17:11:21.694Z,1.00
2019-05-28T17:13:50.197Z,1.03
2019-05-28T17:16:18.452Z,1.00
2019-05-28T17:18:46.139Z,1.30
2019-05-28T17:21:14.628Z,1.10
2019-05-28T17:23:42.118Z,1.07
2019-05-28T17:26:10.142Z,1.00
2019-05-28T17:28:38.021Z,1.07
2019-05-28T17:31:06.283Z,1.20
2019-05-28T17:33:33.864Z,1.23
2019-05-28T17:36:01.429Z,0.80
2019-05-28T17:38:29.731Z,1.30
2019-05-28T17:40:57.993Z,1.10
2019-05-28T17:43:25.505Z,1.00
2019-05-28T17:45:53.025Z,1.00
2019-05-28T17:48:20.599Z,1.00
2019-05-28T17:50:49.239Z,0.87
2019-05-28T17:53:16.951Z,0.90
2019-05-28T17:55:45.218Z,0.90
2019-05-28T17:58:12.707Z,1.13
2019-05-28T18:00:40.997Z,1.00
2019-05-28T18:03:08.652Z,1.03
2019-05-28T18:05:37.017Z,1.00
2019-05-28T18:08:04.699Z,0.83
2019-05-28T18:10:32.954Z,1.00
2019-05-28T18:13:00.445Z,1.07
2019-05-28T18:15:28.688Z,0.90
2019-05-28T18:17:56.350Z,0.80
2019-05-28T18:20:24.119Z,0.80
2019-05-28T18:22:51.754Z,0.90
2019-05-28T18:25:20.840Z,0.80
2019-05-28T18:27:48.596Z,0.80
2019-05-28T18:30:17.151Z,0.93
2019-05-28T18:32:45.126Z,0.80
2019-05-28T18:35:12.732Z,0.90
2019-05-28T18:37:40.353Z,0.80
2019-05-28T18:40:07.843Z,0.90
2019-05-28T18:42:36.190Z,0.80
2019-05-28T18:45:05.126Z,0.90
2019-05-28T18:47:32.665Z,0.80
2019-05-28T18:50:03.381Z,1.33
2019-05-28T18:52:28.566Z,0.97
2019-05-28T18:54:56.269Z,0.87
2019-05-28T18:57:25.254Z,1.07
2019-05-28T18:59:53.140Z,0.80
2019-05-28T19:02:21.105Z,0.70
2019-05-28T19:04:48.689Z,0.80
2019-05-28T19:07:16.224Z,0.70
2019-05-28T19:09:43.745Z,0.80
2019-05-28T19:12:11.434Z,0.90
2019-05-28T19:14:39.148Z,0.90
2019-05-28T19:17:07.431Z,1.00
2019-05-28T19:19:35.604Z,0.83
2019-05-28T19:22:04.705Z,0.63
2019-05-28T19:24:32.976Z,0.80
2019-05-28T19:27:00.513Z,0.77
2019-05-28T19:29:28.065Z,1.00
2019-05-28T19:31:55.682Z,0.90
2019-05-28T19:34:23.239Z,1.07
2019-05-28T19:36:50.916Z,0.70
2019-05-28T19:39:19.371Z,0.80
2019-05-28T19:41:54.032Z,1.00
2019-05-28T19:44:14.447Z,1.00
2019-05-28T19:46:42.082Z,0.77
2019-05-28T19:49:09.850Z,0.90
2019-05-28T19:51:38.239Z,1.07
2019-05-28T19:54:06.407Z,0.90
2019-05-28T19:56:34.196Z,1.00
2019-05-28T19:59:02.617Z,1.00
2019-05-28T20:01:30.206Z,0.90
2019-05-28T20:03:57.897Z,1.00
2019-05-28T20:06:25.526Z,1.00
2019-05-28T20:08:53.754Z,0.93
2019-05-28T20:11:21.411Z,0.90
2019-05-28T20:13:49.087Z,1.20
2019-05-28T20:16:16.600Z,0.97
2019-05-28T20:18:45.172Z,0.80
2019-05-28T20:21:11.776Z,1.00
2019-05-28T20:23:39.334Z,1.03
2019-05-28T20:26:06.897Z,0.90
2019-05-28T20:28:34.466Z,1.10
2019-05-28T20:31:01.930Z,1.20
2019-05-28T20:33:30.318Z,1.10
2019-05-28T20:35:57.998Z,0.90
2019-05-28T20:38:26.466Z,1.07
2019-05-28T20:40:54.762Z,1.07
2019-05-28T20:43:23.144Z,1.00
2019-05-28T20:45:51.602Z,1.20
2019-05-28T20:48:19.102Z,1.20
2019-05-28T20:50:47.408Z,1.20
2019-05-28T20:53:15.009Z,1.17
2019-05-28T20:55:42.677Z,1.13
2019-05-28T20:58:10.346Z,1.10
2019-05-28T21:00:37.907Z,1.30
2019-05-28T21:03:05.998Z,1.30
2019-05-28T21:05:33.483Z,1.23
2019-05-28T21:08:01.842Z,1.40
2019-05-28T21:10:29.604Z,1.20
2019-05-28T21:12:57.269Z,1.00
2019-05-28T21:15:25.673Z,1.20
2019-05-28T21:17:55.320Z,0.90
2019-05-28T21:20:21.605Z,1.40
2019-05-28T21:22:50.164Z,1.20
2019-05-28T21:25:17.662Z,1.07
2019-05-28T21:27:45.927Z,1.10
2019-05-28T21:30:13.530Z,1.00
2019-05-28T21:32:42.030Z,1.07
2019-05-28T21:35:09.640Z,1.07
2019-05-28T21:37:37.231Z,1.20
2019-05-28T21:40:05.516Z,1.20
2019-05-28T21:42:33.970Z,1.20
2019-05-28T21:45:02.533Z,1.00
2019-05-28T21:47:29.096Z,1.20
2019-05-28T21:49:59.460Z,1.10
2019-05-28T21:52:27.209Z,1.20
2019-05-28T21:54:55.096Z,1.40
2019-05-28T21:57:22.318Z,1.33
2019-05-28T21:59:50.586Z,1.20
2019-05-28T22:02:18.143Z,1.10
2019-05-28T22:04:45.676Z,0.93
2019-05-28T22:07:13.322Z,1.53
2019-05-28T22:09:41.683Z,1.30
2019-05-28T22:12:09.162Z,1.10
2019-05-28T22:14:37.539Z,1.10
2019-05-28T22:17:05.638Z,1.37
2019-05-28T22:19:33.171Z,1.20
2019-05-28T22:22:02.741Z,1.10
2019-05-28T22:24:30.346Z,1.07
2019-05-28T22:26:58.488Z,0.97
2019-05-28T22:29:26.386Z,1.00
2019-05-28T22:31:54.777Z,1.00
2019-05-28T22:34:22.522Z,1.20
2019-05-28T22:36:50.110Z,1.40
2019-05-28T22:39:17.600Z,1.10
2019-05-28T22:41:45.951Z,1.30
2019-05-28T22:44:13.456Z,1.37
2019-05-28T22:46:41.550Z,1.10
2019-05-28T22:49:09.162Z,1.30
2019-05-28T22:51:37.450Z,1.20
2019-05-28T22:54:06.188Z,1.10
2019-05-28T22:56:34.310Z,1.20
2019-05-28T22:59:02.596Z,1.07
2019-05-28T23:01:29.580Z,1.23
2019-05-28T23:03:57.072Z,1.10
2019-05-28T23:06:24.550Z,1.30
2019-05-28T23:08:52.132Z,1.10
2019-05-28T23:11:19.611Z,1.00
2019-05-28T23:13:47.968Z,1.23
2019-05-28T23:16:15.644Z,1.30
2019-05-28T23:18:44.072Z,1.40
2019-05-28T23:21:11.640Z,1.20
2019-05-28T23:23:39.267Z,1.20
2019-05-28T23:26:07.332Z,1.20
2019-05-28T23:28:34.331Z,1.00
2019-05-28T23:31:04.100Z,1.30
2019-05-28T23:33:32.466Z,1.40
2019-05-28T23:36:00.034Z,1.00
2019-05-28T23:38:27.714Z,1.33
2019-05-28T23:40:55.722Z,1.20
2019-05-28T23:43:23.208Z,1.10
2019-05-28T23:45:50.714Z,1.20
2019-05-28T23:48:18.579Z,1.10
2019-05-28T23:50:46.964Z,1.13
2019-05-28T23:53:14.444Z,1.10
2019-05-28T23:55:42.915Z,1.07
2019-05-28T23:58:10.401Z,1.10
